KERI/ERI METAR and TAF weather

Enter ICAO airport designator
Station Type Date Time Source
KERI METAR 2019/12/08 06:51 UTC NOAA

KERI 080651Z AUTO 16009KT 10SM CLR M01/M07 A3031 RMK AO2 SLP272 T10061072


Station Type Date Time Source
KERI Decoded METAR 2019/12/08 06:51 UTC NOAA

ERIE INTERNATIONAL AIRPORT, PA, United States (KERI) 42-05N 080-11W 222M
Dec 08, 2019 - 01:51 AM EST / 2019.12.08 0651 UTC
Wind: from the SSE (160 degrees) at 10 MPH (9 KT):0
Visibility: 10 mile(s):0
Sky conditions: clear
Temperature: 30.9 F (-0.6 C)
Windchill: 23 F (-5 C):1
Dew Point: 19.0 F (-7.2 C)
Relative Humidity: 60%
Pressure (altimeter): 30.31 in. Hg (1026 hPa)
ob: KERI 080651Z AUTO 16009KT 10SM CLR M01/M07 A3031 RMK AO2 SLP272 T10061072
cycle: 7

Station Type Date Time Source
KERI TAF 2019/12/08 06:36 UTC NOAA

TAF KERI 080534Z 0806/0906 17010KT P6SM SCT250
FM081300 18012G20KT P6SM BKN250
FM081800 18015G25KT P6SM OVC050

Example: see airport list